Time;durP1;ratioP1;P1;durP2;ratioP2;P2;SDS_P1;SDS_P2;PMS_P1;PMS_P2;Temp;Humidity;BMP_temperature;BMP_pressure;BME280_temperature;BME280_humidity;BME280_pressure;Samples;Min_cycle;Max_cycle;Signal;HPM_P1;HPM_P2
2022/01/25 00:24:19;;;;;;;40.83;16.90;;;;;;;-12.80;67.01;99305.93;1778503;81;21387;-76
2022/01/25 00:28:24;;;;;;;32.63;14.15;;;;;;;-12.83;67.36;99313.35;1747797;82;21021;-77
2022/01/25 00:31:02;;;;;;;34.08;14.47;;;;;;;-12.90;67.11;99313.22;1747202;82;21044;-76
2022/01/25 00:33:29;;;;;;;34.45;13.40;;;;;;;-12.89;67.38;99311.53;1747245;82;20997;-76
2022/01/25 00:35:57;;;;;;;34.10;13.10;;;;;;;-12.96;67.28;99292.66;1760414;81;21469;-76
2022/01/25 00:38:25;;;;;;;31.27;13.53;;;;;;;-12.95;67.37;99309.75;1778443;81;21398;-77
2022/01/25 00:40:52;;;;;;;34.25;13.13;;;;;;;-13.02;67.69;99299.41;1778530;81;21441;-76
2022/01/25 00:43:23;;;;;;;34.15;13.22;;;;;;;-13.00;67.65;99304.27;1732048;81;20952;-77
2022/01/25 00:45:54;;;;;;;35.70;13.48;;;;;;;-12.99;67.87;99305.66;1778474;81;21454;-77
2022/01/25 00:48:30;;;;;;;33.98;13.78;;;;;;;-12.96;68.17;99295.21;1778114;81;20989;-77
2022/01/25 00:50:47;;;;;;;40.30;14.73;;;;;;;-12.95;67.96;99305.92;1774059;81;21071;-77
2022/01/25 00:55:58;;;;;;;33.58;13.05;;;;;;;-12.92;68.14;99301.09;1778553;81;20989;-77
2022/01/25 00:58:25;;;;;;;33.35;12.13;;;;;;;-12.90;67.92;99306.83;1775811;81;20972;-77
2022/01/25 01:00:51;;;;;;;32.15;14.00;;;;;;;-12.92;67.95;99291.75;1765683;81;21020;-77
2022/01/25 01:03:18;;;;;;;32.73;14.23;;;;;;;-12.92;67.95;99291.75;1765763;81;21017;-77
2022/01/25 01:05:45;;;;;;;32.85;13.78;;;;;;;-12.91;68.83;99297.39;1765714;81;21033;-78
2022/01/25 01:08:12;;;;;;;35.08;13.98;;;;;;;-12.86;68.19;99299.95;1757631;81;20980;-76
2022/01/25 01:10:39;;;;;;;30.37;13.10;;;;;;;-12.90;68.47;99291.52;1747817;81;21032;-76
2022/01/25 01:13:48;;;;;;;32.95;12.00;;;;;;;-12.83;68.49;99289.10;1728682;82;21426;-76
2022/01/25 01:16:01;;;;;;;31.60;13.50;;;;;;;-12.83;68.75;99272.88;1725190;82;21020;-76
2022/01/25 01:47:36;;;;;;;24.63;10.98;;;;;;;-12.92;68.29;99257.70;1702019;81;21044;-77
2022/01/25 01:49:50;;;;;;;28.00;10.65;;;;;;;-12.93;68.78;99259.34;1762419;81;21015;-78
2022/01/25 01:52:17;;;;;;;29.98;11.05;;;;;;;-12.97;69.04;99258.57;1729590;83;21012;-77
2022/01/25 01:54:44;;;;;;;28.30;11.20;;;;;;;-12.97;69.19;99250.04;1729546;83;21052;-77
2022/01/25 01:57:10;;;;;;;28.77;10.43;;;;;;;-12.95;68.63;99252.32;1728929;83;21043;-78
2022/01/25 01:59:37;;;;;;;25.40;10.45;;;;;;;-12.96;69.03;99245.44;1729230;83;21035;-77
2022/01/25 02:02:04;;;;;;;23.20;10.98;;;;;;;-13.06;68.87;99235.73;1765871;81;21404;-77
2022/01/25 02:04:31;;;;;;;31.37;11.55;;;;;;;-13.06;68.87;99235.73;1768768;80;20999;-77
2022/01/25 02:06:57;;;;;;;23.27;10.25;;;;;;;-13.10;68.58;99235.36;1765954;80;21063;-77
2022/01/25 02:09:24;;;;;;;25.00;10.30;;;;;;;-13.22;68.77;99245.03;1765982;81;21437;-77
2022/01/25 02:11:50;;;;;;;26.57;11.90;;;;;;;-13.32;69.04;99238.64;1765856;80;21043;-78
2022/01/25 02:14:18;;;;;;;24.43;9.68;;;;;;;-13.32;69.08;99238.64;1773694;80;21109;-77
2022/01/25 02:24:46;;;;;;;24.10;9.25;;;;;;;-13.42;69.21;99230.20;1742000;82;20989;-78
2022/01/25 02:27:14;;;;;;;27.75;9.65;;;;;;;-13.50;69.96;99232.91;1742432;82;20981;-77
2022/01/25 02:29:41;;;;;;;24.10;9.38;;;;;;;-13.53;69.37;99233.14;1742314;82;21044;-78
2022/01/25 02:32:10;;;;;;;23.47;10.00;;;;;;;-13.53;69.58;99229.31;1754406;81;21020;-78
2022/01/25 02:34:37;;;;;;;24.67;9.05;;;;;;;-13.57;70.13;99240.41;1773068;81;21021;-78
2022/01/25 02:37:08;;;;;;;26.07;10.20;;;;;;;-13.57;69.60;99235.31;1762684;81;21029;-78
2022/01/25 02:39:38;;;;;;;25.02;9.80;;;;;;;-13.55;69.85;99239.78;1742392;82;21027;-78
2022/01/25 02:42:06;;;;;;;25.43;9.23;;;;;;;-13.54;69.44;99235.19;1748575;81;20986;-78
2022/01/25 02:44:34;;;;;;;24.15;9.33;;;;;;;-13.48;69.33;99223.72;1742449;82;21416;-78
2022/01/25 02:49:30;;;;;;;26.30;10.93;;;;;;;-13.48;69.25;99223.35;1796016;80;21007;-78
2022/01/25 02:51:57;;;;;;;22.15;9.55;;;;;;;-13.45;69.14;99218.86;1800721;80;21022;-78
2022/01/25 02:54:24;;;;;;;23.00;9.13;;;;;;;-13.42;69.03;99229.33;1762859;81;20996;-78
2022/01/25 02:56:50;;;;;;;19.70;8.50;;;;;;;-13.39;69.19;99218.09;1762575;81;21051;-78
2022/01/25 02:59:17;;;;;;;24.80;9.45;;;;;;;-13.37;69.03;99230.98;1762684;81;21036;-79
2022/01/25 03:01:47;;;;;;;28.80;9.20;;;;;;;-13.32;69.07;99234.81;1762734;81;21009;-78
2022/01/25 03:04:17;;;;;;;25.35;8.80;;;;;;;-13.30;68.92;99235.86;1749218;81;21021;-78
2022/01/25 03:06:44;;;;;;;20.57;9.20;;;;;;;-13.25;68.90;99235.86;1729441;83;21020;-79
2022/01/25 03:09:11;;;;;;;24.15;8.65;;;;;;;-13.20;68.85;99239.69;1729384;83;21529;-79
2022/01/25 03:11:38;;;;;;;18.80;8.88;;;;;;;-13.21;68.78;99238.28;1729235;83;20973;-78
2022/01/25 03:14:09;;;;;;;21.10;10.40;;;;;;;-13.22;68.78;99231.00;1729490;82;21024;-78
2022/01/25 03:16:44;;;;;;;25.12;9.73;;;;;;;-13.24;68.75;99237.64;1729108;83;21044;-77
2022/01/25 03:22:14;;;;;;;21.42;9.15;;;;;;;-13.21;68.70;99238.28;1762653;81;21001;-77
2022/01/25 03:24:34;;;;;;;21.90;8.80;;;;;;;-13.29;68.53;99233.41;1762994;81;21442;-80
2022/01/25 03:27:01;;;;;;;30.43;11.65;;;;;;;-13.31;68.88;99234.95;1761790;81;21020;-80
2022/01/25 03:29:28;;;;;;;28.02;10.78;;;;;;;-13.36;68.70;99223.47;1797688;80;21008;-78
2022/01/25 03:31:55;;;;;;;25.55;9.63;;;;;;;-13.40;68.72;99226.15;1729623;83;22138;-78
2022/01/25 03:34:21;;;;;;;24.37;8.90;;;;;;;-13.43;68.99;99218.59;1797516;80;21039;-79
2022/01/25 03:36:48;;;;;;;22.98;8.63;;;;;;;-13.41;68.90;99225.61;1715984;83;20988;-78
2022/01/25 03:39:15;;;;;;;21.55;8.25;;;;;;;-13.53;68.97;99228.44;1700441;84;21031;-79
2022/01/25 03:41:42;;;;;;;21.15;8.08;;;;;;;-13.55;68.90;99221.02;1766100;81;21002;-78
2022/01/25 03:44:09;;;;;;;21.52;8.68;;;;;;;-13.53;68.87;99214.42;1700589;84;20992;-78
2022/01/25 03:51:59;;;;;;;19.92;8.10;;;;;;;-13.55;68.73;99219.38;1788592;80;20976;-78
2022/01/25 03:54:26;;;;;;;19.77;7.37;;;;;;;-13.60;68.69;99219.38;1800489;80;21008;-79
2022/01/25 03:56:52;;;;;;;19.87;8.15;;;;;;;-13.62;68.85;99226.38;1800650;80;21459;-78
2022/01/25 03:59:19;;;;;;;21.77;7.70;;;;;;;-13.61;68.90;99220.51;1762638;81;21051;-80
2022/01/25 04:01:47;;;;;;;19.42;7.75;;;;;;;-13.61;68.99;99218.87;1762611;81;20968;-80
2022/01/25 04:04:17;;;;;;;22.27;7.78;;;;;;;-13.63;68.95;99220.77;1757688;81;21056;-81
2022/01/25 04:06:49;;;;;;;18.92;7.75;;;;;;;-13.63;69.02;99221.65;1793505;80;21047;-78
2022/01/25 04:09:14;;;;;;;21.93;7.67;;;;;;;-13.64;68.96;99216.45;1797126;80;21433;-77
2022/01/25 04:11:40;;;;;;;20.40;7.60;;;;;;;-13.66;69.04;99223.95;1729766;83;21043;-78
2022/01/25 04:14:07;;;;;;;22.45;7.42;;;;;;;-13.63;69.09;99214.00;1729697;81;21025;-78
2022/01/25 04:16:39;;;;;;;17.23;7.25;;;;;;;-13.66;69.18;99216.31;1704647;83;21055;-78
2022/01/25 04:19:08;;;;;;;16.37;7.15;;;;;;;-13.70;69.06;99226.59;1693956;85;21021;-79
2022/01/25 04:26:55;;;;;;;22.32;7.92;;;;;;;-13.69;69.51;99214.76;1694364;83;21451;-78
2022/01/25 04:29:23;;;;;;;24.90;9.53;;;;;;;-13.67;69.33;99211.58;1693928;84;21048;-78
2022/01/25 04:31:50;;;;;;;22.67;8.58;;;;;;;-13.64;69.12;99209.67;1693978;85;21578;-77
2022/01/25 04:53:15;;;;;;;23.85;9.83;;;;;;;-13.99;69.39;99184.60;1697508;84;21033;-80
2022/01/25 04:55:40;;;;;;;17.90;7.83;;;;;;;-14.03;69.55;99183.45;1683819;84;21097;-79
2022/01/25 04:58:08;;;;;;;14.33;7.33;;;;;;;-14.03;69.31;99178.36;1696550;84;21498;-80
2022/01/25 05:00:30;;;;;;;21.62;8.05;;;;;;;-13.99;69.86;99168.95;1695184;84;21065;-79
2022/01/25 05:03:07;;;;;;;20.88;8.40;;;;;;;-13.94;69.88;99171.88;1697246;84;21048;-79
2022/01/25 05:05:36;;;;;;;24.72;8.60;;;;;;;-13.97;70.47;99167.78;1725256;83;21021;-79
2022/01/25 05:08:05;;;;;;;24.57;8.50;;;;;;;-13.92;69.93;99173.80;1695640;84;21075;-77
2022/01/25 05:10:30;;;;;;;21.97;7.40;;;;;;;-13.89;69.78;99172.25;1693398;84;21080;-78
2022/01/25 05:18:18;;;;;;;19.75;8.30;;;;;;;-13.85;69.81;99173.94;1708177;84;22180;-80
2022/01/25 05:23:27;;;;;;;15.90;6.72;;;;;;;-13.71;69.89;99175.51;1705096;84;21020;-77
2022/01/25 05:25:54;;;;;;;16.25;7.08;;;;;;;-13.68;69.81;99172.83;1708447;82;21075;-79
2022/01/25 05:28:20;;;;;;;18.55;8.68;;;;;;;-13.65;69.50;99150.53;1752520;82;20992;-78
2022/01/25 05:30:47;;;;;;;19.70;8.43;;;;;;;-13.71;69.68;99164.91;1792595;80;21078;-78
2022/01/25 05:33:13;;;;;;;21.42;8.78;;;;;;;-13.76;69.59;99164.91;1752554;82;20999;-78
2022/01/25 05:35:41;;;;;;;24.60;8.90;;;;;;;-13.80;69.73;99161.58;1795701;80;20996;-78
2022/01/25 05:38:07;;;;;;;18.85;7.72;;;;;;;-13.83;69.79;99171.13;1797353;80;21381;-78
2022/01/25 05:40:45;;;;;;;19.62;7.25;;;;;;;-13.88;69.56;99167.70;1729476;83;21033;-78
2022/01/25 05:46:03;;;;;;;19.65;9.35;;;;;;;-13.92;69.60;99169.06;1765888;81;21067;-77
2022/01/25 05:48:35;;;;;;;20.82;8.23;;;;;;;-13.92;69.49;99165.24;1765250;81;21070;-76
2022/01/25 05:51:02;;;;;;;26.40;8.48;;;;;;;-13.94;69.61;99167.69;1766147;81;21084;-79
2022/01/25 05:53:28;;;;;;;21.50;8.23;;;;;;;-13.97;70.20;99158.49;1700332;84;21444;-78
2022/01/25 05:55:55;;;;;;;19.98;8.63;;;;;;;-14.07;69.80;99166.98;1766055;81;21058;-78
2022/01/25 05:58:22;;;;;;;20.75;8.85;;;;;;;-14.05;69.90;99169.67;1706588;83;21020;-78
2022/01/25 06:00:49;;;;;;;22.60;9.08;;;;;;;-14.08;69.93;99173.25;1797290;80;21004;-78
2022/01/25 06:03:16;;;;;;;19.30;7.85;;;;;;;-14.00;70.07;99170.95;1795797;78;21023;-78
2022/01/25 06:05:43;;;;;;;23.77;8.83;;;;;;;-13.95;70.09;99173.52;1787207;78;20984;-78
2022/01/25 06:08:10;;;;;;;13.90;7.12;;;;;;;-13.93;70.26;99172.38;1785778;80;21057;-79
2022/01/25 06:10:37;;;;;;;18.57;7.83;;;;;;;-13.95;69.88;99169.70;1779465;81;21004;-78
2022/01/25 06:13:05;;;;;;;23.15;9.93;;;;;;;-13.94;70.40;99169.33;1778842;79;21092;-79
2022/01/25 06:15:33;;;;;;;22.58;7.80;;;;;;;-13.88;70.08;99175.34;1726374;83;21057;-78
2022/01/25 06:17:59;;;;;;;21.37;7.25;;;;;;;-13.79;70.32;99176.13;1688045;84;21025;-78
2022/01/25 06:20:28;;;;;;;17.40;8.75;;;;;;;-13.77;69.96;99172.41;1666657;85;21041;-78
2022/01/25 06:22:56;;;;;;;23.18;9.50;;;;;;;-13.82;70.49;99168.22;1696876;83;21438;-78
2022/01/25 06:25:22;;;;;;;22.75;10.23;;;;;;;-13.83;70.33;99160.94;1726542;82;21461;-78
2022/01/25 06:27:48;;;;;;;38.05;12.50;;;;;;;-13.77;70.54;99157.13;1723232;83;20993;-78
2022/01/25 06:30:19;;;;;;;38.38;13.43;;;;;;;-13.76;69.87;99161.08;1697597;83;21013;-77
2022/01/25 06:32:46;;;;;;;26.80;11.40;;;;;;;-13.71;70.26;99157.27;1697579;84;21018;-78
2022/01/25 06:35:15;;;;;;;17.30;8.43;;;;;;;-13.62;70.22;99150.80;1682835;84;21001;-77
2022/01/25 06:37:42;;;;;;;23.02;8.45;;;;;;;-13.51;70.38;99150.80;1695837;84;20991;-77
2022/01/25 06:40:11;;;;;;;17.45;7.35;;;;;;;-13.49;69.92;99145.07;1697548;84;21087;-77
2022/01/25 06:42:38;;;;;;;20.70;9.50;;;;;;;-13.49;69.73;99145.07;1697616;84;21453;-77
2022/01/25 06:45:14;;;;;;;23.40;8.78;;;;;;;-13.49;69.67;99145.07;1683695;84;21530;-77
2022/01/25 06:47:37;;;;;;;23.52;8.88;;;;;;;-13.50;69.58;99144.53;1681848;84;21014;-78
2022/01/25 06:50:05;;;;;;;23.77;8.25;;;;;;;-13.45;69.48;99150.00;1697669;84;21026;-78
2022/01/25 06:52:32;;;;;;;19.25;7.92;;;;;;;-13.40;69.63;99141.98;1697726;84;20998;-79
2022/01/25 06:54:58;;;;;;;27.90;9.53;;;;;;;-13.34;69.70;99135.20;1696739;84;21540;-80
2022/01/25 06:57:25;;;;;;;22.00;9.38;;;;;;;-13.28;69.56;99138.66;1697789;84;20998;-79
2022/01/25 06:59:51;;;;;;;25.88;9.55;;;;;;;-13.21;69.62;99133.28;1687983;84;21054;-79
2022/01/25 07:02:18;;;;;;;28.02;10.23;;;;;;;-13.19;69.62;99130.48;1678588;84;21401;-79
2022/01/25 07:04:45;;;;;;;24.35;11.03;;;;;;;-13.14;69.47;99129.20;1694668;84;21034;-78
2022/01/25 07:07:11;;;;;;;29.63;12.40;;;;;;;-13.07;69.80;99128.42;1697670;84;21010;-77
2022/01/25 07:09:37;;;;;;;27.27;10.90;;;;;;;-13.02;69.52;99121.66;1696946;84;21014;-77
2022/01/25 07:12:05;;;;;;;24.98;11.80;;;;;;;-12.99;69.54;99131.23;1697650;84;21459;-78
2022/01/25 07:14:31;;;;;;;30.97;13.83;;;;;;;-12.95;69.44;99129.81;1724272;82;21033;-79
2022/01/25 07:16:58;;;;;;;38.70;13.50;;;;;;;-12.95;69.52;99135.82;1742306;82;21017;-77
2022/01/25 07:19:25;;;;;;;37.13;13.25;;;;;;;-12.88;69.56;99138.09;1742476;82;21017;-77
2022/01/25 07:21:52;;;;;;;41.15;15.70;;;;;;;-12.80;69.40;99145.50;1742395;82;21021;-77
2022/01/25 07:24:20;;;;;;;35.38;14.15;;;;;;;-12.75;69.34;99143.80;1719339;82;20997;-77
2022/01/25 07:26:47;;;;;;;33.83;14.78;;;;;;;-12.68;69.21;99140.09;1716929;81;21095;-78
2022/01/25 07:29:14;;;;;;;39.00;15.03;;;;;;;-12.61;69.23;99141.11;1720370;82;21018;-77
2022/01/25 07:31:41;;;;;;;37.93;14.13;;;;;;;-12.42;69.46;99131.05;1742270;82;21004;-77
2022/01/25 07:34:08;;;;;;;41.15;13.48;;;;;;;-12.32;69.32;99117.36;1722235;82;21346;-77
2022/01/25 07:36:39;;;;;;;35.98;15.13;;;;;;;-12.26;69.09;99111.85;1721040;82;20965;-77
2022/01/25 07:39:06;;;;;;;39.55;13.13;;;;;;;-12.26;69.09;99111.85;1741618;82;21005;-77
2022/01/25 07:41:32;;;;;;;33.53;13.85;;;;;;;-12.17;68.63;99116.78;1742384;82;21410;-78
2022/01/25 07:43:59;;;;;;;33.48;12.70;;;;;;;-12.12;68.76;99117.66;1774277;80;20983;-77
2022/01/25 07:46:26;;;;;;;26.77;11.97;;;;;;;-12.03;68.74;99105.94;1772668;80;21130;-77
2022/01/25 07:48:52;;;;;;;31.55;11.93;;;;;;;-11.92;68.40;99104.22;1766164;81;21001;-77
2022/01/25 07:51:21;;;;;;;26.30;11.03;;;;;;;-11.86;67.43;99094.83;1765953;81;21052;-81
2022/01/25 07:53:50;;;;;;;26.60;9.88;;;;;;;-11.76;68.04;99096.45;1725848;81;21407;-77
2022/01/25 07:56:17;;;;;;;23.25;10.32;;;;;;;-11.66;67.84;99100.20;1785447;80;21034;-77
2022/01/25 07:58:44;;;;;;;21.45;8.83;;;;;;;-11.56;67.79;99104.34;1796289;80;20988;-80
2022/01/25 08:01:10;;;;;;;20.90;6.95;;;;;;;-11.44;66.31;99110.77;1797071;80;21404;-76
2022/01/25 08:03:38;;;;;;;24.63;9.95;;;;;;;-11.35;65.95;99097.80;1727074;81;20976;-80
2022/01/25 08:06:05;;;;;;;26.00;10.35;;;;;;;-11.20;66.60;99089.98;1786343;78;21017;-75
2022/01/25 08:08:33;;;;;;;22.73;9.53;;;;;;;-11.02;66.71;99102.34;1792456;80;21281;-74
2022/01/25 08:11:00;;;;;;;23.80;10.28;;;;;;;-10.77;65.67;99102.84;1793235;80;20988;-73
2022/01/25 08:13:28;;;;;;;30.85;11.38;;;;;;;-10.51;65.79;99097.45;1782262;80;21004;-74
2022/01/25 08:15:56;;;;;;;28.90;11.90;;;;;;;-10.14;66.24;99099.14;1774539;80;21406;-74
2022/01/25 08:18:23;;;;;;;27.55;11.35;;;;;;;-9.86;65.35;99099.38;1778292;80;20992;-73
2022/01/25 08:20:49;;;;;;;39.78;14.33;;;;;;;-9.58;64.42;99097.44;1776077;78;20981;-74
2022/01/25 08:23:16;;;;;;;24.95;11.03;;;;;;;-9.36;63.87;99086.04;1785208;78;21130;-73
2022/01/25 08:25:43;;;;;;;32.38;11.88;;;;;;;-9.11;64.84;99089.37;1778138;80;20963;-73
2022/01/25 08:28:09;;;;;;;32.28;13.00;;;;;;;-8.99;64.21;99081.17;1773313;78;20976;-74
2022/01/25 08:30:36;;;;;;;28.98;12.65;;;;;;;-8.90;63.49;99077.92;1769881;80;21008;-73
2022/01/25 08:33:03;;;;;;;31.07;13.20;;;;;;;-8.69;64.08;99072.80;1752953;81;21067;-74
2022/01/25 08:35:30;;;;;;;31.80;12.80;;;;;;;-8.49;64.41;99077.48;1751370;81;21055;-74
2022/01/25 08:37:57;;;;;;;30.27;12.23;;;;;;;-8.35;60.29;99071.05;1753454;81;20986;-74
2022/01/25 08:40:23;;;;;;;27.10;12.63;;;;;;;-8.22;62.79;99073.58;1748401;81;21001;-73
2022/01/25 08:42:50;;;;;;;40.15;14.15;;;;;;;-8.10;62.00;99060.59;1750589;81;21114;-74
2022/01/25 08:45:17;;;;;;;30.68;12.98;;;;;;;-8.00;62.43;99064.63;1751278;81;21339;-73
2022/01/25 08:47:44;;;;;;;31.25;13.65;;;;;;;-7.88;62.76;99059.35;1770065;78;21047;-73
2022/01/25 08:50:11;;;;;;;28.13;11.80;;;;;;;-7.78;62.49;99058.20;1769198;80;21375;-73
2022/01/25 08:52:41;;;;;;;29.87;13.03;;;;;;;-7.64;62.25;99058.16;1791395;80;20984;-73
2022/01/25 08:55:10;;;;;;;26.75;11.68;;;;;;;-7.46;61.22;99062.22;1777328;80;21011;-72
2022/01/25 08:57:39;;;;;;;35.75;13.65;;;;;;;-7.40;60.11;99063.86;1779459;80;20943;-72
2022/01/25 09:00:11;;;;;;;40.30;17.37;;;;;;;-7.30;61.22;99061.45;1778783;80;21437;-73
2022/01/25 09:02:37;;;;;;;47.78;22.10;;;;;;;-7.14;60.69;99051.64;1795165;80;21012;-73
2022/01/25 09:05:06;;;;;;;54.98;23.25;;;;;;;-7.07;60.59;99039.59;1781575;80;20999;-74
2022/01/25 09:07:36;;;;;;;53.42;23.70;;;;;;;-7.05;60.63;99031.95;1781193;80;20988;-75
2022/01/25 09:10:06;;;;;;;59.48;26.45;;;;;;;-6.94;60.87;99032.16;1781802;80;21011;-74
2022/01/25 09:12:35;;;;;;;56.58;23.18;;;;;;;-6.83;60.50;99039.21;1783223;80;21377;-74
2022/01/25 09:15:09;;;;;;;55.58;24.65;;;;;;;-6.76;58.99;99039.16;1773694;78;21079;-75
2022/01/25 09:17:38;;;;;;;70.52;30.90;;;;;;;-6.73;59.27;99041.89;1782033;78;20960;-73
2022/01/25 09:20:06;;;;;;;72.37;32.00;;;;;;;-6.64;60.02;99035.09;1743703;81;21032;-73
2022/01/25 09:22:32;;;;;;;91.35;37.23;;;;;;;-6.60;59.61;99041.30;1771829;78;21498;-73
2022/01/25 09:25:01;;;;;;;91.87;37.63;;;;;;;-6.60;58.96;99028.02;1782233;78;20995;-74
2022/01/25 09:27:27;;;;;;;89.25;37.00;;;;;;;-6.65;58.87;99019.15;1780477;78;21429;-74
2022/01/25 09:29:54;;;;;;;91.37;37.70;;;;;;;-6.79;58.16;99030.86;1782134;78;21067;-74
2022/01/25 09:32:20;;;;;;;88.65;37.90;;;;;;;-6.86;58.10;99032.58;1775778;80;21023;-74
2022/01/25 09:34:49;;;;;;;77.47;35.43;;;;;;;-6.83;58.94;99030.19;1799527;80;21485;-74
2022/01/25 09:37:16;;;;;;;80.57;36.28;;;;;;;-6.83;57.25;99040.50;1742082;81;21000;-73
2022/01/25 09:39:43;;;;;;;83.33;35.30;;;;;;;-6.97;57.95;99040.12;1749035;81;21017;-74
2022/01/25 09:42:10;;;;;;;86.75;33.38;;;;;;;-7.04;57.64;99041.06;1795944;80;20944;-74
2022/01/25 09:44:40;;;;;;;75.32;34.43;;;;;;;-7.15;58.09;99036.95;1761951;81;20993;-73
2022/01/25 09:47:09;;;;;;;85.90;36.55;;;;;;;-7.09;58.88;99029.61;1762033;81;21000;-73
2022/01/25 09:49:37;;;;;;;78.42;35.70;;;;;;;-7.06;58.59;99019.45;1761925;81;21024;-73
2022/01/25 09:52:07;;;;;;;75.78;33.58;;;;;;;-7.06;58.44;99027.61;1762215;81;20989;-73
2022/01/25 09:54:36;;;;;;;82.45;36.17;;;;;;;-7.12;57.57;99014.34;1752626;81;21056;-74
2022/01/25 09:57:05;;;;;;;79.25;34.83;;;;;;;-7.20;57.84;99004.51;1727760;83;21056;-73
2022/01/25 09:59:32;;;;;;;73.33;32.60;;;;;;;-7.10;58.87;99017.92;1783439;80;21257;-74
2022/01/25 10:02:01;;;;;;;83.12;34.00;;;;;;;-7.02;58.31;99014.97;1749532;81;21167;-73
2022/01/25 10:04:38;;;;;;;78.15;34.95;;;;;;;-6.93;58.42;99020.17;1753101;81;20948;-73
2022/01/25 10:07:06;;;;;;;82.67;35.55;;;;;;;-6.83;58.83;99008.28;1748414;81;21113;-74
2022/01/25 10:09:33;;;;;;;78.70;33.45;;;;;;;-6.82;58.81;99020.78;1751872;81;21473;-74
2022/01/25 10:12:23;;;;;;;85.47;36.08;;;;;;;-6.73;59.24;99007.51;1752385;81;21037;-74
2022/01/25 10:15:06;;;;;;;82.90;34.18;;;;;;;-6.69;58.94;99004.30;1749816;81;21000;-73
2022/01/25 10:17:34;;;;;;;80.90;34.05;;;;;;;-6.60;58.93;99001.34;1757444;81;21009;-75
2022/01/25 10:20:02;;;;;;;78.75;32.93;;;;;;;-6.55;58.74;98998.22;1753322;81;21055;-73
2022/01/25 10:22:46;;;;;;;78.22;33.00;;;;;;;-6.51;58.45;98997.97;1749219;80;21438;-73
2022/01/25 10:25:12;;;;;;;69.72;28.67;;;;;;;-6.39;58.85;98993.89;1751169;81;20996;-73
2022/01/25 10:28:10;;;;;;;64.40;29.40;;;;;;;-6.30;58.59;98999.55;1732812;81;20988;-73
2022/01/25 10:30:53;;;;;;;62.10;30.40;;;;;;;-6.24;58.81;98996.38;1749404;81;20985;-74
2022/01/25 10:33:36;;;;;;;63.28;27.67;;;;;;;-6.20;57.31;98987.14;1745832;81;21024;-75
2022/01/25 10:36:19;;;;;;;70.57;26.17;;;;;;;-6.36;57.53;98988.48;1756570;81;21021;-74
2022/01/25 10:38:49;;;;;;;57.17;26.30;;;;;;;-6.62;57.34;98981.91;1771787;81;21037;-75
2022/01/25 10:41:20;;;;;;;58.13;25.12;;;;;;;-6.58;58.60;98978.70;1771956;81;21036;-76
2022/01/25 10:43:49;;;;;;;58.33;24.35;;;;;;;-6.54;58.43;98978.06;1769868;81;21040;-75
2022/01/25 10:46:25;;;;;;;58.92;25.72;;;;;;;-6.33;59.07;98973.96;1772457;81;21004;-74
2022/01/25 10:49:09;;;;;;;52.35;24.27;;;;;;;-6.15;58.83;98965.91;1773195;80;21004;-74
2022/01/25 10:51:49;;;;;;;55.10;24.50;;;;;;;-5.98;58.59;98958.16;1765809;81;21090;-75
2022/01/25 10:54:20;;;;;;;53.02;25.02;;;;;;;-6.01;58.65;98961.85;1765797;81;21004;-74
2022/01/25 10:56:56;;;;;;;60.73;25.35;;;;;;;-5.92;58.42;98958.85;1772880;80;21048;-73
2022/01/25 10:59:28;;;;;;;49.13;23.18;;;;;;;-5.93;58.05;98954.11;1774758;80;21031;-73
2022/01/25 11:02:04;;;;;;;53.55;23.73;;;;;;;-5.90;58.17;98945.22;1773196;80;21083;-74
2022/01/25 11:04:39;;;;;;;60.58;24.92;;;;;;;-5.79;58.51;98936.73;1774510;80;20983;-73
2022/01/25 11:07:11;;;;;;;54.13;23.75;;;;;;;-5.66;58.53;98937.38;1797332;80;21086;-73
2022/01/25 11:09:44;;;;;;;53.65;23.75;;;;;;;-5.49;57.88;98936.50;1797271;80;20972;-73
2022/01/25 11:12:14;;;;;;;50.33;23.65;;;;;;;-5.46;57.59;98929.30;1792079;80;21405;-73
2022/01/25 11:14:57;;;;;;;54.67;23.77;;;;;;;-5.44;57.66;98928.57;1793318;80;21060;-73
2022/01/25 11:17:27;;;;;;;52.58;23.85;;;;;;;-5.34;57.12;98922.17;1761319;81;20986;-73
2022/01/25 11:19:56;;;;;;;54.10;23.90;;;;;;;-5.36;56.32;98919.03;1748237;81;21077;-74
2022/01/25 11:22:23;;;;;;;56.02;25.50;;;;;;;-5.32;57.41;98912.78;1758265;81;21028;-74
2022/01/25 11:24:55;;;;;;;54.77;24.72;;;;;;;-5.26;57.25;98913.89;1760317;81;20988;-74
2022/01/25 11:27:26;;;;;;;53.98;25.82;;;;;;;-5.20;57.04;98909.91;1760672;81;21064;-74
2022/01/25 11:29:56;;;;;;;62.95;25.08;;;;;;;-5.15;56.68;98907.53;1764942;81;21020;-74
2022/01/25 11:32:33;;;;;;;54.30;24.63;;;;;;;-5.24;56.12;98906.69;1766990;81;20949;-74
2022/01/25 11:35:01;;;;;;;64.45;26.37;;;;;;;-5.25;56.63;98903.63;1760740;81;20993;-75
2022/01/25 11:37:44;;;;;;;50.95;24.27;;;;;;;-5.17;56.78;98905.29;1753182;81;21417;-74
2022/01/25 11:40:28;;;;;;;58.33;26.05;;;;;;;-5.18;56.82;98893.19;1749709;81;21054;-74
2022/01/25 11:42:59;;;;;;;61.53;25.37;;;;;;;-5.11;57.00;98896.95;1761787;81;21422;-74
2022/01/25 11:45:36;;;;;;;56.42;26.48;;;;;;;-5.06;56.91;98886.42;1759439;81;21044;-74
2022/01/25 11:48:04;;;;;;;60.88;27.35;;;;;;;-5.20;56.39;98887.04;1697644;84;21088;-74
2022/01/25 11:50:35;;;;;;;57.73;24.57;;;;;;;-5.23;57.20;98880.02;1712932;83;21031;-74
2022/01/25 11:53:09;;;;;;;61.95;25.82;;;;;;;-5.18;57.42;98885.01;1717204;83;21037;-74
2022/01/25 11:55:49;;;;;;;58.15;27.02;;;;;;;-5.09;57.23;98885.88;1699203;84;21034;-75
2022/01/25 11:58:29;;;;;;;66.25;25.68;;;;;;;-5.05;57.33;98885.60;1717363;83;21008;-75
2022/01/25 12:01:05;;;;;;;60.67;28.00;;;;;;;-5.07;57.27;98895.86;1696072;84;21493;-74
2022/01/25 12:03:46;;;;;;;61.30;26.68;;;;;;;-5.20;57.63;98885.75;1713054;83;21016;-74
2022/01/25 12:06:33;;;;;;;58.75;28.23;;;;;;;-5.24;57.98;98894.20;1686236;84;21004;-76
2022/01/25 12:09:16;;;;;;;62.17;29.23;;;;;;;-5.32;58.87;98899.00;1713494;83;20977;-76
2022/01/25 12:11:48;;;;;;;64.97;27.15;;;;;;;-5.52;59.74;98896.30;1716600;83;20992;-74
2022/01/25 12:14:30;;;;;;;57.62;27.42;;;;;;;-5.50;59.95;98898.56;1715446;83;20940;-74
2022/01/25 12:17:09;;;;;;;60.10;25.65;;;;;;;-5.52;61.34;98896.72;1747558;81;20985;-74
2022/01/25 12:19:51;;;;;;;54.58;25.10;;;;;;;-5.59;61.90;98884.80;1781936;80;21452;-74
2022/01/25 12:25:35;;;;;;;56.33;26.73;;;;;;;-5.54;61.65;98888.89;1753725;81;20972;-74
2022/01/25 12:28:10;;;;;;;59.95;26.62;;;;;;;-5.53;60.97;98888.07;1756112;81;21067;-74
2022/01/25 12:30:42;;;;;;;57.25;26.25;;;;;;;-5.52;62.06;98887.25;1778205;79;21012;-76
2022/01/25 12:33:25;;;;;;;58.95;27.50;;;;;;;-5.75;62.61;98885.73;1782156;80;21051;-75
2022/01/25 12:36:07;;;;;;;59.67;28.38;;;;;;;-5.79;63.32;98885.09;1788462;80;20972;-75
2022/01/25 12:38:52;;;;;;;64.40;28.30;;;;;;;-6.02;63.92;98874.48;1772758;80;20960;-75
2022/01/25 12:41:25;;;;;;;60.28;27.70;;;;;;;-5.99;63.61;98884.98;1783504;80;21024;-74
2022/01/25 12:43:58;;;;;;;56.98;26.57;;;;;;;-5.89;62.76;98878.60;1781044;80;20961;-76
2022/01/25 12:46:41;;;;;;;59.95;27.10;;;;;;;-5.86;63.97;98878.73;1778006;80;21076;-76
2022/01/25 12:49:11;;;;;;;65.08;27.87;;;;;;;-5.77;64.96;98881.30;1792002;80;21015;-75
2022/01/25 12:51:41;;;;;;;61.70;26.27;;;;;;;-5.75;64.45;98883.16;1800375;80;21015;-75
2022/01/25 12:54:11;;;;;;;56.45;27.32;;;;;;;-5.74;64.64;98890.08;1762193;81;21013;-75
2022/01/25 12:56:46;;;;;;;62.90;27.85;;;;;;;-5.78;64.31;98880.41;1762179;81;21406;-75
2022/01/25 12:59:17;;;;;;;55.70;25.77;;;;;;;-5.72;64.49;98883.71;1762118;81;21021;-75
2022/01/25 13:01:44;;;;;;;60.85;27.05;;;;;;;-5.68;64.58;98876.59;1760251;81;21032;-75
2022/01/25 13:04:14;;;;;;;60.45;27.15;;;;;;;-5.65;65.42;98867.69;1755540;81;21014;-77
2022/01/25 13:06:48;;;;;;;54.00;27.17;;;;;;;-5.68;65.08;98868.85;1749825;81;21020;-80
2022/01/25 13:09:25;;;;;;;55.73;27.70;;;;;;;-5.66;65.11;98867.22;1754836;81;21048;-76
2022/01/25 13:14:47;;;;;;;57.58;29.52;;;;;;;-5.61;64.90;98864.45;1751268;81;21418;-75
2022/01/25 13:17:14;;;;;;;60.85;27.20;;;;;;;-5.61;65.57;98858.42;1745443;81;21426;-77
2022/01/25 13:19:50;;;;;;;57.60;27.77;;;;;;;-5.66;66.65;98866.35;1707889;83;21068;-74
2022/01/25 13:22:22;;;;;;;64.65;27.82;;;;;;;-5.73;66.87;98868.61;1747857;81;21010;-74